sensor_id;sensor_type;location;lat;lon;timestamp;P1;durP1;ratioP1;P2;durP2;ratioP2
9836;SDS011;4957;51.412;6.724;2023-05-09T00:01:12;8.90;;;7.87;;
9836;SDS011;4957;51.412;6.724;2023-05-09T00:03:38;11.00;;;8.17;;
9836;SDS011;4957;51.412;6.724;2023-05-09T00:06:04;9.60;;;8.20;;
9836;SDS011;4957;51.412;6.724;2023-05-09T00:08:30;10.07;;;8.73;;
9836;SDS011;4957;51.412;6.724;2023-05-09T00:10:56;10.30;;;8.50;;
9836;SDS011;4957;51.412;6.724;2023-05-09T00:13:22;9.60;;;8.37;;
9836;SDS011;4957;51.412;6.724;2023-05-09T00:15:49;11.27;;;8.87;;
9836;SDS011;4957;51.412;6.724;2023-05-09T00:18:18;10.57;;;8.50;;
9836;SDS011;4957;51.412;6.724;2023-05-09T00:20:46;10.87;;;9.03;;
9836;SDS011;4957;51.412;6.724;2023-05-09T00:23:13;9.70;;;8.60;;
9836;SDS011;4957;51.412;6.724;2023-05-09T00:25:38;10.87;;;9.47;;
9836;SDS011;4957;51.412;6.724;2023-05-09T00:28:04;12.27;;;9.77;;
9836;SDS011;4957;51.412;6.724;2023-05-09T00:30:30;14.40;;;9.90;;
9836;SDS011;4957;51.412;6.724;2023-05-09T00:32:56;11.70;;;10.10;;
9836;SDS011;4957;51.412;6.724;2023-05-09T00:35:21;11.33;;;10.10;;
9836;SDS011;4957;51.412;6.724;2023-05-09T00:37:47;12.83;;;10.60;;
9836;SDS011;4957;51.412;6.724;2023-05-09T00:40:13;12.63;;;10.43;;
9836;SDS011;4957;51.412;6.724;2023-05-09T00:42:39;13.23;;;10.23;;
9836;SDS011;4957;51.412;6.724;2023-05-09T00:45:05;12.97;;;9.67;;
9836;SDS011;4957;51.412;6.724;2023-05-09T00:47:32;11.80;;;10.40;;
9836;SDS011;4957;51.412;6.724;2023-05-09T00:49:58;15.60;;;10.53;;
9836;SDS011;4957;51.412;6.724;2023-05-09T00:52:25;12.03;;;9.97;;
9836;SDS011;4957;51.412;6.724;2023-05-09T00:54:51;13.00;;;10.67;;
9836;SDS011;4957;51.412;6.724;2023-05-09T00:57:18;13.07;;;10.07;;
9836;SDS011;4957;51.412;6.724;2023-05-09T00:59:44;12.73;;;10.33;;
9836;SDS011;4957;51.412;6.724;2023-05-09T01:02:10;14.70;;;10.87;;
9836;SDS011;4957;51.412;6.724;2023-05-09T01:04:36;11.60;;;10.23;;
9836;SDS011;4957;51.412;6.724;2023-05-09T01:07:23;14.97;;;11.03;;
9836;SDS011;4957;51.412;6.724;2023-05-09T01:13:04;12.97;;;11.57;;
9836;SDS011;4957;51.412;6.724;2023-05-09T01:18:36;13.83;;;11.37;;
9836;SDS011;4957;51.412;6.724;2023-05-09T01:21:12;13.23;;;10.93;;
9836;SDS011;4957;51.412;6.724;2023-05-09T01:29:35;13.67;;;11.17;;
9836;SDS011;4957;51.412;6.724;2023-05-09T01:32:03;12.27;;;10.80;;
9836;SDS011;4957;51.412;6.724;2023-05-09T01:34:33;15.43;;;12.00;;
9836;SDS011;4957;51.412;6.724;2023-05-09T01:37:02;16.67;;;11.23;;
9836;SDS011;4957;51.412;6.724;2023-05-09T01:39:29;13.57;;;11.60;;
9836;SDS011;4957;51.412;6.724;2023-05-09T01:41:59;14.57;;;12.53;;
9836;SDS011;4957;51.412;6.724;2023-05-09T01:44:28;14.80;;;12.03;;
9836;SDS011;4957;51.412;6.724;2023-05-09T01:46:59;17.67;;;12.67;;
9836;SDS011;4957;51.412;6.724;2023-05-09T01:49:29;18.30;;;12.87;;
9836;SDS011;4957;51.412;6.724;2023-05-09T01:51:59;16.20;;;12.53;;
9836;SDS011;4957;51.412;6.724;2023-05-09T01:54:28;16.13;;;12.50;;
9836;SDS011;4957;51.412;6.724;2023-05-09T01:56:56;15.23;;;12.00;;
9836;SDS011;4957;51.412;6.724;2023-05-09T01:59:24;15.37;;;12.53;;
9836;SDS011;4957;51.412;6.724;2023-05-09T02:01:52;14.83;;;12.97;;
9836;SDS011;4957;51.412;6.724;2023-05-09T02:04:19;14.17;;;12.67;;
9836;SDS011;4957;51.412;6.724;2023-05-09T02:06:47;15.57;;;12.03;;
9836;SDS011;4957;51.412;6.724;2023-05-09T02:09:16;18.00;;;13.10;;
9836;SDS011;4957;51.412;6.724;2023-05-09T02:11:42;14.30;;;12.30;;
9836;SDS011;4957;51.412;6.724;2023-05-09T02:14:08;14.03;;;12.27;;
9836;SDS011;4957;51.412;6.724;2023-05-09T02:16:34;18.73;;;13.83;;
9836;SDS011;4957;51.412;6.724;2023-05-09T02:18:59;17.03;;;12.47;;
9836;SDS011;4957;51.412;6.724;2023-05-09T02:21:25;17.77;;;12.40;;
9836;SDS011;4957;51.412;6.724;2023-05-09T02:23:51;18.43;;;13.23;;
9836;SDS011;4957;51.412;6.724;2023-05-09T02:26:17;17.93;;;13.83;;
9836;SDS011;4957;51.412;6.724;2023-05-09T02:28:43;16.83;;;13.37;;
9836;SDS011;4957;51.412;6.724;2023-05-09T02:31:11;19.23;;;14.53;;
9836;SDS011;4957;51.412;6.724;2023-05-09T02:33:38;17.90;;;13.53;;
9836;SDS011;4957;51.412;6.724;2023-05-09T02:36:07;16.57;;;12.83;;
9836;SDS011;4957;51.412;6.724;2023-05-09T02:38:34;16.67;;;12.90;;
9836;SDS011;4957;51.412;6.724;2023-05-09T02:41:00;18.63;;;14.13;;
9836;SDS011;4957;51.412;6.724;2023-05-09T02:43:25;17.47;;;14.07;;
9836;SDS011;4957;51.412;6.724;2023-05-09T02:45:51;15.20;;;13.00;;
9836;SDS011;4957;51.412;6.724;2023-05-09T02:48:17;18.27;;;14.70;;
9836;SDS011;4957;51.412;6.724;2023-05-09T02:50:43;19.77;;;14.47;;
9836;SDS011;4957;51.412;6.724;2023-05-09T02:53:10;18.97;;;12.93;;
9836;SDS011;4957;51.412;6.724;2023-05-09T02:55:35;17.90;;;14.03;;
9836;SDS011;4957;51.412;6.724;2023-05-09T02:58:01;19.70;;;14.90;;
9836;SDS011;4957;51.412;6.724;2023-05-09T03:00:27;24.17;;;16.10;;
9836;SDS011;4957;51.412;6.724;2023-05-09T03:02:52;22.53;;;16.67;;
9836;SDS011;4957;51.412;6.724;2023-05-09T03:05:18;23.70;;;17.00;;
9836;SDS011;4957;51.412;6.724;2023-05-09T03:07:47;24.53;;;17.60;;
9836;SDS011;4957;51.412;6.724;2023-05-09T03:10:15;21.57;;;15.37;;
9836;SDS011;4957;51.412;6.724;2023-05-09T03:12:41;23.77;;;17.67;;
9836;SDS011;4957;51.412;6.724;2023-05-09T03:15:07;29.17;;;17.60;;
9836;SDS011;4957;51.412;6.724;2023-05-09T03:17:33;28.33;;;19.57;;
9836;SDS011;4957;51.412;6.724;2023-05-09T03:19:59;35.83;;;19.53;;
9836;SDS011;4957;51.412;6.724;2023-05-09T03:22:25;26.13;;;17.50;;
9836;SDS011;4957;51.412;6.724;2023-05-09T03:24:51;29.23;;;19.03;;
9836;SDS011;4957;51.412;6.724;2023-05-09T03:27:16;39.33;;;22.43;;
9836;SDS011;4957;51.412;6.724;2023-05-09T03:29:42;39.33;;;23.37;;
9836;SDS011;4957;51.412;6.724;2023-05-09T03:32:08;37.00;;;23.07;;
9836;SDS011;4957;51.412;6.724;2023-05-09T03:34:34;33.23;;;20.40;;
9836;SDS011;4957;51.412;6.724;2023-05-09T03:36:59;36.03;;;22.87;;
9836;SDS011;4957;51.412;6.724;2023-05-09T03:39:25;44.93;;;24.00;;
9836;SDS011;4957;51.412;6.724;2023-05-09T03:41:50;39.10;;;23.73;;
9836;SDS011;4957;51.412;6.724;2023-05-09T03:44:16;41.03;;;25.67;;
9836;SDS011;4957;51.412;6.724;2023-05-09T03:46:42;44.97;;;25.83;;
9836;SDS011;4957;51.412;6.724;2023-05-09T03:49:07;52.87;;;28.07;;
9836;SDS011;4957;51.412;6.724;2023-05-09T03:51:33;50.47;;;28.03;;
9836;SDS011;4957;51.412;6.724;2023-05-09T03:53:59;54.57;;;28.43;;
9836;SDS011;4957;51.412;6.724;2023-05-09T03:56:25;51.10;;;29.23;;
9836;SDS011;4957;51.412;6.724;2023-05-09T03:58:50;51.17;;;29.57;;
9836;SDS011;4957;51.412;6.724;2023-05-09T04:01:16;52.50;;;30.00;;
9836;SDS011;4957;51.412;6.724;2023-05-09T04:03:42;57.23;;;31.03;;
9836;SDS011;4957;51.412;6.724;2023-05-09T04:06:08;56.77;;;29.57;;
9836;SDS011;4957;51.412;6.724;2023-05-09T04:08:33;61.70;;;30.40;;
9836;SDS011;4957;51.412;6.724;2023-05-09T04:10:59;53.37;;;29.63;;
9836;SDS011;4957;51.412;6.724;2023-05-09T04:13:25;54.20;;;29.53;;
9836;SDS011;4957;51.412;6.724;2023-05-09T04:15:52;57.37;;;30.83;;
9836;SDS011;4957;51.412;6.724;2023-05-09T04:18:17;54.57;;;28.60;;
9836;SDS011;4957;51.412;6.724;2023-05-09T04:20:43;55.53;;;27.07;;
9836;SDS011;4957;51.412;6.724;2023-05-09T04:23:09;56.20;;;29.70;;
9836;SDS011;4957;51.412;6.724;2023-05-09T04:25:34;53.07;;;29.87;;
9836;SDS011;4957;51.412;6.724;2023-05-09T04:28:01;53.77;;;28.80;;
9836;SDS011;4957;51.412;6.724;2023-05-09T04:30:26;57.63;;;30.33;;
9836;SDS011;4957;51.412;6.724;2023-05-09T04:32:52;54.67;;;29.93;;
9836;SDS011;4957;51.412;6.724;2023-05-09T04:35:19;57.83;;;29.93;;
9836;SDS011;4957;51.412;6.724;2023-05-09T04:37:45;52.97;;;29.67;;
9836;SDS011;4957;51.412;6.724;2023-05-09T04:40:11;53.07;;;29.40;;
9836;SDS011;4957;51.412;6.724;2023-05-09T04:42:37;59.43;;;32.80;;
9836;SDS011;4957;51.412;6.724;2023-05-09T04:45:04;60.40;;;32.03;;
9836;SDS011;4957;51.412;6.724;2023-05-09T04:47:30;57.50;;;32.53;;
9836;SDS011;4957;51.412;6.724;2023-05-09T04:49:56;58.13;;;33.00;;
9836;SDS011;4957;51.412;6.724;2023-05-09T04:52:21;60.83;;;31.90;;
9836;SDS011;4957;51.412;6.724;2023-05-09T04:54:47;57.00;;;30.93;;
9836;SDS011;4957;51.412;6.724;2023-05-09T04:57:13;59.00;;;31.23;;
9836;SDS011;4957;51.412;6.724;2023-05-09T04:59:38;52.13;;;29.60;;
9836;SDS011;4957;51.412;6.724;2023-05-09T05:02:04;54.27;;;28.53;;
9836;SDS011;4957;51.412;6.724;2023-05-09T05:04:30;52.17;;;27.77;;
9836;SDS011;4957;51.412;6.724;2023-05-09T05:06:56;51.27;;;27.73;;
9836;SDS011;4957;51.412;6.724;2023-05-09T05:09:22;54.97;;;27.83;;
9836;SDS011;4957;51.412;6.724;2023-05-09T05:11:48;53.03;;;28.43;;
9836;SDS011;4957;51.412;6.724;2023-05-09T05:14:13;50.97;;;27.27;;
9836;SDS011;4957;51.412;6.724;2023-05-09T05:16:39;48.40;;;28.17;;
9836;SDS011;4957;51.412;6.724;2023-05-09T05:19:05;55.57;;;28.50;;
9836;SDS011;4957;51.412;6.724;2023-05-09T05:21:31;53.40;;;29.10;;
9836;SDS011;4957;51.412;6.724;2023-05-09T05:23:56;53.70;;;29.57;;
9836;SDS011;4957;51.412;6.724;2023-05-09T05:26:22;52.00;;;29.67;;
9836;SDS011;4957;51.412;6.724;2023-05-09T05:28:49;45.83;;;26.97;;
9836;SDS011;4957;51.412;6.724;2023-05-09T05:31:19;53.70;;;27.43;;
9836;SDS011;4957;51.412;6.724;2023-05-09T05:33:45;46.57;;;27.23;;
9836;SDS011;4957;51.412;6.724;2023-05-09T05:36:11;46.43;;;26.57;;
9836;SDS011;4957;51.412;6.724;2023-05-09T05:38:36;43.73;;;25.97;;
9836;SDS011;4957;51.412;6.724;2023-05-09T05:41:02;45.80;;;26.53;;
9836;SDS011;4957;51.412;6.724;2023-05-09T05:43:28;47.17;;;26.70;;
9836;SDS011;4957;51.412;6.724;2023-05-09T05:45:54;42.37;;;25.23;;
9836;SDS011;4957;51.412;6.724;2023-05-09T05:48:20;38.87;;;24.03;;
9836;SDS011;4957;51.412;6.724;2023-05-09T05:50:45;41.10;;;23.43;;
9836;SDS011;4957;51.412;6.724;2023-05-09T05:53:11;43.10;;;24.10;;
9836;SDS011;4957;51.412;6.724;2023-05-09T05:55:37;40.47;;;23.60;;
9836;SDS011;4957;51.412;6.724;2023-05-09T05:58:03;39.53;;;22.87;;
9836;SDS011;4957;51.412;6.724;2023-05-09T06:00:29;49.37;;;23.37;;
9836;SDS011;4957;51.412;6.724;2023-05-09T06:02:54;46.67;;;23.70;;
9836;SDS011;4957;51.412;6.724;2023-05-09T06:05:20;42.10;;;22.30;;
9836;SDS011;4957;51.412;6.724;2023-05-09T06:07:46;49.10;;;25.17;;
9836;SDS011;4957;51.412;6.724;2023-05-09T06:10:11;49.20;;;25.10;;
9836;SDS011;4957;51.412;6.724;2023-05-09T06:12:39;50.73;;;25.90;;
9836;SDS011;4957;51.412;6.724;2023-05-09T06:15:05;49.60;;;24.23;;
9836;SDS011;4957;51.412;6.724;2023-05-09T06:17:32;59.20;;;27.20;;
9836;SDS011;4957;51.412;6.724;2023-05-09T06:19:57;55.40;;;27.57;;
9836;SDS011;4957;51.412;6.724;2023-05-09T06:22:23;58.80;;;27.17;;
9836;SDS011;4957;51.412;6.724;2023-05-09T06:24:49;58.67;;;27.67;;
9836;SDS011;4957;51.412;6.724;2023-05-09T06:27:14;57.17;;;27.10;;
9836;SDS011;4957;51.412;6.724;2023-05-09T06:29:40;56.53;;;27.13;;
9836;SDS011;4957;51.412;6.724;2023-05-09T06:32:06;59.03;;;27.17;;
9836;SDS011;4957;51.412;6.724;2023-05-09T06:34:32;68.37;;;28.17;;
9836;SDS011;4957;51.412;6.724;2023-05-09T06:36:57;60.07;;;27.33;;
9836;SDS011;4957;51.412;6.724;2023-05-09T06:39:23;58.23;;;27.50;;
9836;SDS011;4957;51.412;6.724;2023-05-09T06:41:49;51.43;;;25.40;;
9836;SDS011;4957;51.412;6.724;2023-05-09T06:44:14;52.30;;;25.37;;
9836;SDS011;4957;51.412;6.724;2023-05-09T06:46:40;44.90;;;24.50;;
9836;SDS011;4957;51.412;6.724;2023-05-09T06:49:06;39.47;;;22.30;;
9836;SDS011;4957;51.412;6.724;2023-05-09T06:51:31;35.23;;;19.73;;
9836;SDS011;4957;51.412;6.724;2023-05-09T06:53:57;34.27;;;19.63;;
9836;SDS011;4957;51.412;6.724;2023-05-09T06:56:23;37.97;;;19.90;;
9836;SDS011;4957;51.412;6.724;2023-05-09T06:58:49;28.30;;;18.60;;
9836;SDS011;4957;51.412;6.724;2023-05-09T07:01:15;25.93;;;16.40;;
9836;SDS011;4957;51.412;6.724;2023-05-09T07:03:42;26.50;;;17.03;;
9836;SDS011;4957;51.412;6.724;2023-05-09T07:06:07;20.93;;;15.77;;
9836;SDS011;4957;51.412;6.724;2023-05-09T07:08:33;19.60;;;14.87;;
9836;SDS011;4957;51.412;6.724;2023-05-09T07:10:59;18.83;;;15.07;;
9836;SDS011;4957;51.412;6.724;2023-05-09T07:13:25;25.17;;;15.00;;
9836;SDS011;4957;51.412;6.724;2023-05-09T07:15:51;21.23;;;14.23;;
9836;SDS011;4957;51.412;6.724;2023-05-09T07:18:16;18.67;;;14.13;;
9836;SDS011;4957;51.412;6.724;2023-05-09T07:20:42;17.93;;;14.37;;
9836;SDS011;4957;51.412;6.724;2023-05-09T07:23:08;18.03;;;14.20;;
9836;SDS011;4957;51.412;6.724;2023-05-09T07:25:33;15.37;;;12.60;;
9836;SDS011;4957;51.412;6.724;2023-05-09T07:27:59;19.50;;;13.90;;
9836;SDS011;4957;51.412;6.724;2023-05-09T07:30:25;17.27;;;14.00;;
9836;SDS011;4957;51.412;6.724;2023-05-09T07:32:51;18.43;;;13.97;;
9836;SDS011;4957;51.412;6.724;2023-05-09T07:35:17;18.50;;;14.23;;
9836;SDS011;4957;51.412;6.724;2023-05-09T07:37:43;18.00;;;13.53;;
9836;SDS011;4957;51.412;6.724;2023-05-09T07:40:09;16.97;;;13.77;;
9836;SDS011;4957;51.412;6.724;2023-05-09T07:42:35;16.27;;;13.40;;
9836;SDS011;4957;51.412;6.724;2023-05-09T07:45:01;15.23;;;12.77;;
9836;SDS011;4957;51.412;6.724;2023-05-09T07:47:29;16.53;;;12.87;;
9836;SDS011;4957;51.412;6.724;2023-05-09T07:49:58;14.17;;;11.67;;
9836;SDS011;4957;51.412;6.724;2023-05-09T07:52:24;18.13;;;12.60;;
9836;SDS011;4957;51.412;6.724;2023-05-09T07:54:49;15.50;;;11.70;;
9836;SDS011;4957;51.412;6.724;2023-05-09T07:57:15;12.83;;;11.07;;
9836;SDS011;4957;51.412;6.724;2023-05-09T07:59:41;14.30;;;11.50;;
9836;SDS011;4957;51.412;6.724;2023-05-09T08:02:07;14.80;;;12.07;;
9836;SDS011;4957;51.412;6.724;2023-05-09T08:04:33;16.70;;;11.80;;
9836;SDS011;4957;51.412;6.724;2023-05-09T08:07:02;14.67;;;11.07;;
9836;SDS011;4957;51.412;6.724;2023-05-09T08:09:28;13.03;;;10.37;;
9836;SDS011;4957;51.412;6.724;2023-05-09T08:11:54;11.67;;;9.73;;
9836;SDS011;4957;51.412;6.724;2023-05-09T08:14:20;10.37;;;9.27;;
9836;SDS011;4957;51.412;6.724;2023-05-09T08:16:45;12.97;;;9.17;;
9836;SDS011;4957;51.412;6.724;2023-05-09T08:19:11;11.03;;;8.77;;
9836;SDS011;4957;51.412;6.724;2023-05-09T08:21:37;15.00;;;9.90;;
9836;SDS011;4957;51.412;6.724;2023-05-09T08:24:03;9.40;;;7.53;;
9836;SDS011;4957;51.412;6.724;2023-05-09T08:26:32;9.67;;;8.03;;
9836;SDS011;4957;51.412;6.724;2023-05-09T08:28:58;8.70;;;7.43;;
9836;SDS011;4957;51.412;6.724;2023-05-09T08:31:25;10.50;;;5.63;;
9836;SDS011;4957;51.412;6.724;2023-05-09T08:33:51;7.07;;;6.07;;
9836;SDS011;4957;51.412;6.724;2023-05-09T08:36:17;11.93;;;7.03;;
9836;SDS011;4957;51.412;6.724;2023-05-09T08:38:42;7.37;;;6.13;;
9836;SDS011;4957;51.412;6.724;2023-05-09T08:41:08;6.70;;;5.60;;
9836;SDS011;4957;51.412;6.724;2023-05-09T08:43:34;8.77;;;7.00;;
9836;SDS011;4957;51.412;6.724;2023-05-09T08:46:02;6.13;;;4.93;;
9836;SDS011;4957;51.412;6.724;2023-05-09T08:48:34;5.40;;;4.77;;
9836;SDS011;4957;51.412;6.724;2023-05-09T08:51:03;8.07;;;4.43;;
9836;SDS011;4957;51.412;6.724;2023-05-09T08:53:30;5.00;;;4.03;;
9836;SDS011;4957;51.412;6.724;2023-05-09T08:55:59;11.17;;;4.93;;
9836;SDS011;4957;51.412;6.724;2023-05-09T08:58:27;6.73;;;4.57;;
9836;SDS011;4957;51.412;6.724;2023-05-09T09:00:54;5.27;;;4.50;;
9836;SDS011;4957;51.412;6.724;2023-05-09T09:03:20;15.23;;;4.63;;
9836;SDS011;4957;51.412;6.724;2023-05-09T09:05:47;5.43;;;4.33;;
9836;SDS011;4957;51.412;6.724;2023-05-09T09:08:16;5.70;;;4.20;;
9836;SDS011;4957;51.412;6.724;2023-05-09T09:10:42;6.07;;;4.67;;
9836;SDS011;4957;51.412;6.724;2023-05-09T09:13:12;8.60;;;4.93;;
9836;SDS011;4957;51.412;6.724;2023-05-09T09:15:40;7.93;;;5.00;;
9836;SDS011;4957;51.412;6.724;2023-05-09T09:18:10;5.03;;;4.27;;
9836;SDS011;4957;51.412;6.724;2023-05-09T09:20:39;6.57;;;5.03;;
9836;SDS011;4957;51.412;6.724;2023-05-09T09:23:09;5.13;;;4.40;;
9836;SDS011;4957;51.412;6.724;2023-05-09T09:25:36;5.13;;;4.00;;
9836;SDS011;4957;51.412;6.724;2023-05-09T09:28:03;7.07;;;5.17;;
9836;SDS011;4957;51.412;6.724;2023-05-09T09:30:29;5.87;;;5.27;;
9836;SDS011;4957;51.412;6.724;2023-05-09T09:32:57;5.00;;;4.50;;
9836;SDS011;4957;51.412;6.724;2023-05-09T09:35:23;7.83;;;5.03;;
9836;SDS011;4957;51.412;6.724;2023-05-09T09:37:49;7.80;;;6.03;;
9836;SDS011;4957;51.412;6.724;2023-05-09T09:40:21;7.43;;;4.77;;
9836;SDS011;4957;51.412;6.724;2023-05-09T09:42:50;4.30;;;3.63;;
9836;SDS011;4957;51.412;6.724;2023-05-09T09:45:19;5.60;;;3.70;;
9836;SDS011;4957;51.412;6.724;2023-05-09T09:47:46;7.07;;;3.40;;
9836;SDS011;4957;51.412;6.724;2023-05-09T09:50:13;4.83;;;3.00;;
9836;SDS011;4957;51.412;6.724;2023-05-09T09:52:49;5.57;;;3.00;;
9836;SDS011;4957;51.412;6.724;2023-05-09T09:55:17;8.50;;;3.57;;
9836;SDS011;4957;51.412;6.724;2023-05-09T09:57:43;5.87;;;3.20;;
9836;SDS011;4957;51.412;6.724;2023-05-09T10:00:11;6.60;;;3.33;;
9836;SDS011;4957;51.412;6.724;2023-05-09T10:05:19;6.27;;;2.70;;
9836;SDS011;4957;51.412;6.724;2023-05-09T10:10:26;5.20;;;2.50;;
9836;SDS011;4957;51.412;6.724;2023-05-09T10:12:53;4.20;;;2.90;;
9836;SDS011;4957;51.412;6.724;2023-05-09T10:15:22;4.63;;;3.40;;
9836;SDS011;4957;51.412;6.724;2023-05-09T10:17:55;7.13;;;3.83;;
9836;SDS011;4957;51.412;6.724;2023-05-09T10:20:22;3.70;;;3.03;;
9836;SDS011;4957;51.412;6.724;2023-05-09T10:22:49;5.57;;;2.90;;
9836;SDS011;4957;51.412;6.724;2023-05-09T10:25:21;4.90;;;3.40;;
9836;SDS011;4957;51.412;6.724;2023-05-09T10:28:06;3.40;;;2.87;;
9836;SDS011;4957;51.412;6.724;2023-05-09T10:30:38;5.47;;;3.10;;
9836;SDS011;4957;51.412;6.724;2023-05-09T10:33:23;3.93;;;3.03;;
9836;SDS011;4957;51.412;6.724;2023-05-09T10:35:54;6.23;;;3.13;;
9836;SDS011;4957;51.412;6.724;2023-05-09T10:38:23;8.70;;;3.30;;
9836;SDS011;4957;51.412;6.724;2023-05-09T10:40:49;7.77;;;3.20;;
9836;SDS011;4957;51.412;6.724;2023-05-09T10:43:17;4.67;;;3.10;;
9836;SDS011;4957;51.412;6.724;2023-05-09T10:45:45;3.10;;;2.80;;
9836;SDS011;4957;51.412;6.724;2023-05-09T10:48:11;3.60;;;2.87;;
9836;SDS011;4957;51.412;6.724;2023-05-09T10:50:37;3.83;;;2.53;;
9836;SDS011;4957;51.412;6.724;2023-05-09T10:55:56;4.33;;;2.90;;
9836;SDS011;4957;51.412;6.724;2023-05-09T10:58:24;3.83;;;3.43;;
9836;SDS011;4957;51.412;6.724;2023-05-09T11:00:57;3.90;;;2.70;;
9836;SDS011;4957;51.412;6.724;2023-05-09T11:03:25;3.83;;;2.63;;
9836;SDS011;4957;51.412;6.724;2023-05-09T11:05:53;4.73;;;2.57;;
9836;SDS011;4957;51.412;6.724;2023-05-09T11:08:21;5.60;;;3.10;;
9836;SDS011;4957;51.412;6.724;2023-05-09T11:10:54;5.53;;;2.57;;
9836;SDS011;4957;51.412;6.724;2023-05-09T11:13:22;4.63;;;2.57;;
9836;SDS011;4957;51.412;6.724;2023-05-09T11:18:17;5.10;;;2.43;;
9836;SDS011;4957;51.412;6.724;2023-05-09T11:20:44;5.10;;;2.70;;
9836;SDS011;4957;51.412;6.724;2023-05-09T11:23:10;5.00;;;2.23;;
9836;SDS011;4957;51.412;6.724;2023-05-09T11:25:37;5.70;;;2.40;;
9836;SDS011;4957;51.412;6.724;2023-05-09T11:28:04;3.20;;;2.40;;
9836;SDS011;4957;51.412;6.724;2023-05-09T11:30:40;2.63;;;2.33;;
9836;SDS011;4957;51.412;6.724;2023-05-09T11:33:20;5.63;;;2.50;;
9836;SDS011;4957;51.412;6.724;2023-05-09T11:38:43;2.70;;;2.03;;
9836;SDS011;4957;51.412;6.724;2023-05-09T11:41:12;2.53;;;2.30;;
9836;SDS011;4957;51.412;6.724;2023-05-09T11:43:38;3.83;;;2.33;;
9836;SDS011;4957;51.412;6.724;2023-05-09T11:46:06;6.00;;;2.30;;
9836;SDS011;4957;51.412;6.724;2023-05-09T11:48:38;4.93;;;2.67;;
9836;SDS011;4957;51.412;6.724;2023-05-09T11:51:05;3.13;;;2.40;;
9836;SDS011;4957;51.412;6.724;2023-05-09T11:53:31;6.27;;;2.37;;
9836;SDS011;4957;51.412;6.724;2023-05-09T11:55:57;2.40;;;2.20;;
9836;SDS011;4957;51.412;6.724;2023-05-09T11:58:27;3.77;;;2.50;;
9836;SDS011;4957;51.412;6.724;2023-05-09T12:00:53;2.40;;;2.20;;
9836;SDS011;4957;51.412;6.724;2023-05-09T12:03:19;5.00;;;2.07;;
9836;SDS011;4957;51.412;6.724;2023-05-09T12:05:46;2.50;;;2.30;;
9836;SDS011;4957;51.412;6.724;2023-05-09T12:08:12;4.13;;;2.50;;
9836;SDS011;4957;51.412;6.724;2023-05-09T12:10:39;3.67;;;2.43;;
9836;SDS011;4957;51.412;6.724;2023-05-09T12:13:05;4.37;;;2.73;;
9836;SDS011;4957;51.412;6.724;2023-05-09T12:15:37;2.43;;;2.20;;
9836;SDS011;4957;51.412;6.724;2023-05-09T12:18:03;2.80;;;2.60;;
9836;SDS011;4957;51.412;6.724;2023-05-09T12:20:47;3.33;;;2.13;;
9836;SDS011;4957;51.412;6.724;2023-05-09T12:23:17;3.40;;;2.10;;
9836;SDS011;4957;51.412;6.724;2023-05-09T12:25:56;1.93;;;1.70;;
9836;SDS011;4957;51.412;6.724;2023-05-09T12:28:22;3.23;;;1.90;;
9836;SDS011;4957;51.412;6.724;2023-05-09T12:30:48;2.50;;;1.70;;
9836;SDS011;4957;51.412;6.724;2023-05-09T12:33:15;4.00;;;3.23;;
9836;SDS011;4957;51.412;6.724;2023-05-09T12:35:48;5.77;;;3.20;;
9836;SDS011;4957;51.412;6.724;2023-05-09T12:38:27;3.73;;;3.37;;
9836;SDS011;4957;51.412;6.724;2023-05-09T12:40:59;3.50;;;3.20;;
9836;SDS011;4957;51.412;6.724;2023-05-09T12:43:28;4.17;;;3.03;;
9836;SDS011;4957;51.412;6.724;2023-05-09T12:45:55;4.00;;;3.30;;
9836;SDS011;4957;51.412;6.724;2023-05-09T12:48:22;4.80;;;3.20;;
9836;SDS011;4957;51.412;6.724;2023-05-09T12:50:48;6.97;;;3.20;;
9836;SDS011;4957;51.412;6.724;2023-05-09T12:53:22;4.00;;;3.57;;
9836;SDS011;4957;51.412;6.724;2023-05-09T12:55:55;4.33;;;3.70;;
9836;SDS011;4957;51.412;6.724;2023-05-09T12:58:27;4.20;;;3.80;;
9836;SDS011;4957;51.412;6.724;2023-05-09T13:00:54;4.67;;;3.73;;
9836;SDS011;4957;51.412;6.724;2023-05-09T13:05:58;6.23;;;4.20;;
9836;SDS011;4957;51.412;6.724;2023-05-09T13:08:25;4.80;;;4.40;;
9836;SDS011;4957;51.412;6.724;2023-05-09T13:10:52;6.27;;;4.23;;
9836;SDS011;4957;51.412;6.724;2023-05-09T13:13:18;5.70;;;4.57;;
9836;SDS011;4957;51.412;6.724;2023-05-09T13:15:45;5.73;;;4.60;;
9836;SDS011;4957;51.412;6.724;2023-05-09T13:18:11;7.03;;;4.97;;
9836;SDS011;4957;51.412;6.724;2023-05-09T13:20:37;5.93;;;5.17;;
9836;SDS011;4957;51.412;6.724;2023-05-09T13:23:03;8.40;;;4.13;;
9836;SDS011;4957;51.412;6.724;2023-05-09T13:25:28;7.80;;;5.07;;
9836;SDS011;4957;51.412;6.724;2023-05-09T13:27:54;11.57;;;5.20;;
9836;SDS011;4957;51.412;6.724;2023-05-09T13:30:20;6.97;;;5.30;;
9836;SDS011;4957;51.412;6.724;2023-05-09T13:32:46;7.00;;;5.07;;
9836;SDS011;4957;51.412;6.724;2023-05-09T13:35:12;8.73;;;6.00;;
9836;SDS011;4957;51.412;6.724;2023-05-09T13:37:38;8.33;;;5.50;;
9836;SDS011;4957;51.412;6.724;2023-05-09T13:40:04;7.00;;;5.83;;
9836;SDS011;4957;51.412;6.724;2023-05-09T13:42:32;6.23;;;5.37;;
9836;SDS011;4957;51.412;6.724;2023-05-09T13:44:58;8.97;;;6.27;;
9836;SDS011;4957;51.412;6.724;2023-05-09T13:47:24;9.80;;;6.13;;
9836;SDS011;4957;51.412;6.724;2023-05-09T13:49:50;7.63;;;5.03;;
9836;SDS011;4957;51.412;6.724;2023-05-09T13:52:16;7.20;;;6.47;;
9836;SDS011;4957;51.412;6.724;2023-05-09T13:54:42;7.27;;;6.50;;
9836;SDS011;4957;51.412;6.724;2023-05-09T13:57:08;9.43;;;5.70;;
9836;SDS011;4957;51.412;6.724;2023-05-09T13:59:34;7.63;;;6.23;;
9836;SDS011;4957;51.412;6.724;2023-05-09T14:02:00;10.20;;;6.10;;
9836;SDS011;4957;51.412;6.724;2023-05-09T14:04:26;9.50;;;6.73;;
9836;SDS011;4957;51.412;6.724;2023-05-09T14:06:53;7.17;;;5.90;;
9836;SDS011;4957;51.412;6.724;2023-05-09T14:09:19;7.30;;;6.60;;
9836;SDS011;4957;51.412;6.724;2023-05-09T14:11:47;6.03;;;5.27;;
9836;SDS011;4957;51.412;6.724;2023-05-09T14:14:16;8.40;;;6.33;;
9836;SDS011;4957;51.412;6.724;2023-05-09T14:16:43;6.00;;;5.30;;
9836;SDS011;4957;51.412;6.724;2023-05-09T14:19:08;7.10;;;6.27;;
9836;SDS011;4957;51.412;6.724;2023-05-09T14:21:35;7.57;;;6.50;;
9836;SDS011;4957;51.412;6.724;2023-05-09T14:24:01;7.57;;;6.87;;
9836;SDS011;4957;51.412;6.724;2023-05-09T14:26:27;6.47;;;5.83;;
9836;SDS011;4957;51.412;6.724;2023-05-09T14:28:53;7.87;;;6.70;;
9836;SDS011;4957;51.412;6.724;2023-05-09T14:31:19;8.90;;;6.77;;
9836;SDS011;4957;51.412;6.724;2023-05-09T14:33:44;8.57;;;6.60;;
9836;SDS011;4957;51.412;6.724;2023-05-09T14:36:10;7.87;;;7.10;;
9836;SDS011;4957;51.412;6.724;2023-05-09T14:38:36;7.27;;;6.57;;
9836;SDS011;4957;51.412;6.724;2023-05-09T14:41:02;9.20;;;5.63;;
9836;SDS011;4957;51.412;6.724;2023-05-09T14:43:28;4.90;;;4.33;;
9836;SDS011;4957;51.412;6.724;2023-05-09T14:45:54;4.10;;;3.80;;
9836;SDS011;4957;51.412;6.724;2023-05-09T14:48:20;4.67;;;4.27;;
9836;SDS011;4957;51.412;6.724;2023-05-09T14:50:46;15.77;;;3.90;;
9836;SDS011;4957;51.412;6.724;2023-05-09T14:53:13;3.97;;;3.17;;
9836;SDS011;4957;51.412;6.724;2023-05-09T14:55:39;8.13;;;4.53;;
9836;SDS011;4957;51.412;6.724;2023-05-09T14:58:05;3.53;;;3.07;;
9836;SDS011;4957;51.412;6.724;2023-05-09T15:00:31;3.80;;;3.10;;
9836;SDS011;4957;51.412;6.724;2023-05-09T15:02:58;3.60;;;3.30;;
9836;SDS011;4957;51.412;6.724;2023-05-09T15:05:23;4.63;;;3.13;;
9836;SDS011;4957;51.412;6.724;2023-05-09T15:07:49;3.60;;;3.30;;
9836;SDS011;4957;51.412;6.724;2023-05-09T15:10:15;3.93;;;3.17;;
9836;SDS011;4957;51.412;6.724;2023-05-09T15:12:40;4.80;;;3.63;;
9836;SDS011;4957;51.412;6.724;2023-05-09T15:15:16;5.93;;;3.70;;
9836;SDS011;4957;51.412;6.724;2023-05-09T15:17:43;4.73;;;4.23;;
9836;SDS011;4957;51.412;6.724;2023-05-09T15:20:10;4.80;;;4.30;;
9836;SDS011;4957;51.412;6.724;2023-05-09T15:22:37;5.20;;;3.97;;
9836;SDS011;4957;51.412;6.724;2023-05-09T15:25:02;5.97;;;4.23;;
9836;SDS011;4957;51.412;6.724;2023-05-09T15:27:29;4.67;;;3.73;;